sensor_id;sensor_type;location;lat;lon;timestamp;temperature;humidity
52323;DHT22;38263;52.920;6.238;2023-08-20T00:02:10;16.20;99.90
52323;DHT22;38263;52.920;6.238;2023-08-20T00:04:36;16.30;99.90
52323;DHT22;38263;52.920;6.238;2023-08-20T00:07:02;16.30;99.90
52323;DHT22;38263;52.920;6.238;2023-08-20T00:09:28;16.30;99.90
52323;DHT22;38263;52.920;6.238;2023-08-20T00:17:34;16.60;99.90
52323;DHT22;38263;52.920;6.238;2023-08-20T00:29:47;16.00;99.90
52323;DHT22;38263;52.920;6.238;2023-08-20T00:32:14;15.80;99.90
52323;DHT22;38263;52.920;6.238;2023-08-20T00:39:32;15.60;99.90
52323;DHT22;38263;52.920;6.238;2023-08-20T00:46:50;15.60;99.90
52323;DHT22;38263;52.920;6.238;2023-08-20T00:49:17;15.50;99.90
52323;DHT22;38263;52.920;6.238;2023-08-20T00:54:09;15.50;99.90
52323;DHT22;38263;52.920;6.238;2023-08-20T01:03:53;15.80;99.90
52323;DHT22;38263;52.920;6.238;2023-08-20T01:08:58;15.80;99.90
52323;DHT22;38263;52.920;6.238;2023-08-20T01:11:30;16.00;99.90
52323;DHT22;38263;52.920;6.238;2023-08-20T01:13:59;16.00;99.90
52323;DHT22;38263;52.920;6.238;2023-08-20T01:16:26;15.80;99.90
52323;DHT22;38263;52.920;6.238;2023-08-20T01:21:38;15.60;99.90
52323;DHT22;38263;52.920;6.238;2023-08-20T01:27:07;15.30;99.90
52323;DHT22;38263;52.920;6.238;2023-08-20T01:29:33;15.10;99.90
52323;DHT22;38263;52.920;6.238;2023-08-20T01:32:00;15.20;99.90
52323;DHT22;38263;52.920;6.238;2023-08-20T01:34:26;15.20;99.90
52323;DHT22;38263;52.920;6.238;2023-08-20T01:44:10;15.20;99.90
52323;DHT22;38263;52.920;6.238;2023-08-20T01:49:02;15.30;99.90
52323;DHT22;38263;52.920;6.238;2023-08-20T01:51:28;15.30;99.90
52323;DHT22;38263;52.920;6.238;2023-08-20T01:53:54;15.20;99.90
52323;DHT22;38263;52.920;6.238;2023-08-20T02:02:27;15.30;99.90
52323;DHT22;38263;52.920;6.238;2023-08-20T02:09:44;15.20;99.90
52323;DHT22;38263;52.920;6.238;2023-08-20T02:17:02;15.20;99.90
52323;DHT22;38263;52.920;6.238;2023-08-20T02:29:12;15.40;99.90
52323;DHT22;38263;52.920;6.238;2023-08-20T02:31:37;15.30;99.90
52323;DHT22;38263;52.920;6.238;2023-08-20T02:38:55;15.50;99.90
52323;DHT22;38263;52.920;6.238;2023-08-20T02:58:23;15.40;99.90
52323;DHT22;38263;52.920;6.238;2023-08-20T03:00:48;15.50;99.90
52323;DHT22;38263;52.920;6.238;2023-08-20T03:03:35;15.00;99.90
52323;DHT22;38263;52.920;6.238;2023-08-20T03:08:27;15.20;99.90
52323;DHT22;38263;52.920;6.238;2023-08-20T03:18:20;15.10;99.90
52323;DHT22;38263;52.920;6.238;2023-08-20T03:25:38;15.00;99.90
52323;DHT22;38263;52.920;6.238;2023-08-20T03:30:30;15.10;99.90
52323;DHT22;38263;52.920;6.238;2023-08-20T03:37:49;15.30;99.90
52323;DHT22;38263;52.920;6.238;2023-08-20T03:45:07;15.50;99.90
52323;DHT22;38263;52.920;6.238;2023-08-20T03:49:58;15.40;99.90
52323;DHT22;38263;52.920;6.238;2023-08-20T03:52:24;15.40;99.90
52323;DHT22;38263;52.920;6.238;2023-08-20T04:14:18;15.30;99.90
52323;DHT22;38263;52.920;6.238;2023-08-20T04:19:09;15.10;99.90
52323;DHT22;38263;52.920;6.238;2023-08-20T04:33:45;14.80;99.90
52323;DHT22;38263;52.920;6.238;2023-08-20T04:36:11;14.80;99.90
52323;DHT22;38263;52.920;6.238;2023-08-20T04:45:54;14.90;99.90
52323;DHT22;38263;52.920;6.238;2023-08-20T04:50:47;14.90;99.90
52323;DHT22;38263;52.920;6.238;2023-08-20T04:55:38;14.70;99.90
52323;DHT22;38263;52.920;6.238;2023-08-20T05:00:30;14.70;99.90
52323;DHT22;38263;52.920;6.238;2023-08-20T05:02:55;14.60;99.90
52323;DHT22;38263;52.920;6.238;2023-08-20T05:05:21;14.00;99.90
52323;DHT22;38263;52.920;6.238;2023-08-20T05:12:40;14.70;99.90
52323;DHT22;38263;52.920;6.238;2023-08-20T05:22:24;14.60;99.90
52323;DHT22;38263;52.920;6.238;2023-08-20T05:27:16;14.80;99.90
52323;DHT22;38263;52.920;6.238;2023-08-20T05:34:35;14.80;99.90
52323;DHT22;38263;52.920;6.238;2023-08-20T05:37:00;15.10;99.90
52323;DHT22;38263;52.920;6.238;2023-08-20T05:39:26;15.20;99.90
52323;DHT22;38263;52.920;6.238;2023-08-20T05:41:55;15.00;99.90
52323;DHT22;38263;52.920;6.238;2023-08-20T05:52:53;15.60;99.90
52323;DHT22;38263;52.920;6.238;2023-08-20T05:57:46;15.60;99.90
52323;DHT22;38263;52.920;6.238;2023-08-20T06:05:04;16.00;99.90
52323;DHT22;38263;52.920;6.238;2023-08-20T06:07:30;16.10;99.90
52323;DHT22;38263;52.920;6.238;2023-08-20T06:09:56;16.10;99.90
52323;DHT22;38263;52.920;6.238;2023-08-20T06:14:48;16.90;99.90
52323;DHT22;38263;52.920;6.238;2023-08-20T06:17:14;17.20;99.90
52323;DHT22;38263;52.920;6.238;2023-08-20T06:19:39;17.70;99.90
52323;DHT22;38263;52.920;6.238;2023-08-20T06:22:05;18.10;99.90
52323;DHT22;38263;52.920;6.238;2023-08-20T06:24:31;18.30;99.90
52323;DHT22;38263;52.920;6.238;2023-08-20T06:26:56;18.60;99.90
52323;DHT22;38263;52.920;6.238;2023-08-20T06:29:22;18.80;99.90
52323;DHT22;38263;52.920;6.238;2023-08-20T06:31:48;20.50;99.90
52323;DHT22;38263;52.920;6.238;2023-08-20T06:34:14;20.80;99.90
52323;DHT22;38263;52.920;6.238;2023-08-20T06:36:40;19.40;99.90
52323;DHT22;38263;52.920;6.238;2023-08-20T06:39:05;19.50;99.90
52323;DHT22;38263;52.920;6.238;2023-08-20T06:41:31;19.70;99.90
52323;DHT22;38263;52.920;6.238;2023-08-20T06:43:57;20.00;99.90
52323;DHT22;38263;52.920;6.238;2023-08-20T06:46:22;20.50;99.90
52323;DHT22;38263;52.920;6.238;2023-08-20T06:48:48;20.50;99.90
52323;DHT22;38263;52.920;6.238;2023-08-20T06:51:14;20.80;99.90
52323;DHT22;38263;52.920;6.238;2023-08-20T06:53:43;20.50;99.90
52323;DHT22;38263;52.920;6.238;2023-08-20T06:56:09;20.70;99.90
52323;DHT22;38263;52.920;6.238;2023-08-20T06:58:35;21.00;99.90
52323;DHT22;38263;52.920;6.238;2023-08-20T07:01:01;21.00;99.90
52323;DHT22;38263;52.920;6.238;2023-08-20T07:03:43;21.00;99.90
52323;DHT22;38263;52.920;6.238;2023-08-20T07:06:09;20.90;99.90
52323;DHT22;38263;52.920;6.238;2023-08-20T07:08:36;20.70;99.90
52323;DHT22;38263;52.920;6.238;2023-08-20T07:11:02;20.90;99.90
52323;DHT22;38263;52.920;6.238;2023-08-20T07:13:28;20.60;99.90
52323;DHT22;38263;52.920;6.238;2023-08-20T07:15:54;20.70;99.90
52323;DHT22;38263;52.920;6.238;2023-08-20T07:18:20;20.40;99.90
52323;DHT22;38263;52.920;6.238;2023-08-20T07:20:45;20.20;99.90
52323;DHT22;38263;52.920;6.238;2023-08-20T07:23:11;20.40;99.90
52323;DHT22;38263;52.920;6.238;2023-08-20T07:25:38;20.90;99.90
52323;DHT22;38263;52.920;6.238;2023-08-20T07:28:04;20.20;99.90
52323;DHT22;38263;52.920;6.238;2023-08-20T07:30:30;20.10;99.90
52323;DHT22;38263;52.920;6.238;2023-08-20T07:32:56;20.20;99.90
52323;DHT22;38263;52.920;6.238;2023-08-20T07:35:21;20.40;99.90
52323;DHT22;38263;52.920;6.238;2023-08-20T07:37:47;20.10;99.90
52323;DHT22;38263;52.920;6.238;2023-08-20T07:40:12;20.30;99.90
52323;DHT22;38263;52.920;6.238;2023-08-20T07:42:40;20.30;99.90
52323;DHT22;38263;52.920;6.238;2023-08-20T07:45:06;20.30;99.90
52323;DHT22;38263;52.920;6.238;2023-08-20T07:47:33;20.20;99.90
52323;DHT22;38263;52.920;6.238;2023-08-20T07:49:58;20.40;99.90
52323;DHT22;38263;52.920;6.238;2023-08-20T07:52:24;20.40;99.90
52323;DHT22;38263;52.920;6.238;2023-08-20T07:54:50;20.50;99.90
52323;DHT22;38263;52.920;6.238;2023-08-20T07:57:15;20.50;99.90
52323;DHT22;38263;52.920;6.238;2023-08-20T07:59:41;20.50;99.90
52323;DHT22;38263;52.920;6.238;2023-08-20T08:02:06;20.50;99.90
52323;DHT22;38263;52.920;6.238;2023-08-20T08:04:33;20.60;99.90
52323;DHT22;38263;52.920;6.238;2023-08-20T08:06:59;20.40;99.90
52323;DHT22;38263;52.920;6.238;2023-08-20T08:09:29;20.60;99.90
52323;DHT22;38263;52.920;6.238;2023-08-20T08:11:55;21.20;99.90
52323;DHT22;38263;52.920;6.238;2023-08-20T08:14:21;20.80;99.90
52323;DHT22;38263;52.920;6.238;2023-08-20T08:16:47;20.90;99.90
52323;DHT22;38263;52.920;6.238;2023-08-20T08:19:13;20.80;99.90
52323;DHT22;38263;52.920;6.238;2023-08-20T08:21:39;21.10;99.90
52323;DHT22;38263;52.920;6.238;2023-08-20T08:24:05;21.00;99.90
52323;DHT22;38263;52.920;6.238;2023-08-20T08:26:32;21.10;99.90
52323;DHT22;38263;52.920;6.238;2023-08-20T08:28:58;21.20;99.90
52323;DHT22;38263;52.920;6.238;2023-08-20T08:31:23;21.40;99.90
52323;DHT22;38263;52.920;6.238;2023-08-20T08:33:49;20.90;99.90
52323;DHT22;38263;52.920;6.238;2023-08-20T08:36:15;21.00;99.90
52323;DHT22;38263;52.920;6.238;2023-08-20T08:38:42;21.00;99.90
52323;DHT22;38263;52.920;6.238;2023-08-20T08:41:11;21.00;99.90
52323;DHT22;38263;52.920;6.238;2023-08-20T08:43:38;21.30;99.90
52323;DHT22;38263;52.920;6.238;2023-08-20T08:46:06;21.20;99.90
52323;DHT22;38263;52.920;6.238;2023-08-20T08:48:34;21.30;99.90
52323;DHT22;38263;52.920;6.238;2023-08-20T08:51:01;21.40;99.90
52323;DHT22;38263;52.920;6.238;2023-08-20T08:53:27;22.40;99.90
52323;DHT22;38263;52.920;6.238;2023-08-20T08:55:53;21.40;99.90
52323;DHT22;38263;52.920;6.238;2023-08-20T08:58:19;21.70;99.90
52323;DHT22;38263;52.920;6.238;2023-08-20T09:00:44;21.60;99.90
52323;DHT22;38263;52.920;6.238;2023-08-20T09:03:10;21.80;99.90
52323;DHT22;38263;52.920;6.238;2023-08-20T09:05:49;22.00;99.90
52323;DHT22;38263;52.920;6.238;2023-08-20T09:08:21;21.70;99.90
52323;DHT22;38263;52.920;6.238;2023-08-20T09:10:51;21.90;99.90
52323;DHT22;38263;52.920;6.238;2023-08-20T09:13:17;22.00;99.90
52323;DHT22;38263;52.920;6.238;2023-08-20T09:15:42;21.90;99.90
52323;DHT22;38263;52.920;6.238;2023-08-20T09:18:11;22.30;99.90
52323;DHT22;38263;52.920;6.238;2023-08-20T09:20:37;22.30;99.90
52323;DHT22;38263;52.920;6.238;2023-08-20T09:23:03;22.30;99.90
52323;DHT22;38263;52.920;6.238;2023-08-20T09:25:29;22.30;99.90
52323;DHT22;38263;52.920;6.238;2023-08-20T09:27:54;23.10;99.90
52323;DHT22;38263;52.920;6.238;2023-08-20T09:30:20;22.50;99.90
52323;DHT22;38263;52.920;6.238;2023-08-20T09:32:47;22.60;99.90
52323;DHT22;38263;52.920;6.238;2023-08-20T09:35:27;22.80;99.90
52323;DHT22;38263;52.920;6.238;2023-08-20T09:38:02;23.70;99.90
52323;DHT22;38263;52.920;6.238;2023-08-20T09:40:29;22.90;99.90
52323;DHT22;38263;52.920;6.238;2023-08-20T09:42:56;23.00;99.90
52323;DHT22;38263;52.920;6.238;2023-08-20T09:45:25;22.80;99.90
52323;DHT22;38263;52.920;6.238;2023-08-20T09:47:55;23.10;99.90
52323;DHT22;38263;52.920;6.238;2023-08-20T09:50:22;23.30;99.90
52323;DHT22;38263;52.920;6.238;2023-08-20T09:53:01;23.10;99.90
52323;DHT22;38263;52.920;6.238;2023-08-20T09:55:32;23.30;99.90
52323;DHT22;38263;52.920;6.238;2023-08-20T09:58:01;23.10;99.90
52323;DHT22;38263;52.920;6.238;2023-08-20T10:00:27;23.40;99.90
52323;DHT22;38263;52.920;6.238;2023-08-20T10:02:53;23.30;99.90
52323;DHT22;38263;52.920;6.238;2023-08-20T10:05:20;23.40;99.90
52323;DHT22;38263;52.920;6.238;2023-08-20T10:07:49;23.60;99.90
52323;DHT22;38263;52.920;6.238;2023-08-20T10:10:14;23.50;99.90
52323;DHT22;38263;52.920;6.238;2023-08-20T10:12:43;25.00;99.90
52323;DHT22;38263;52.920;6.238;2023-08-20T10:15:11;23.70;99.90
52323;DHT22;38263;52.920;6.238;2023-08-20T10:17:39;23.70;99.90
52323;DHT22;38263;52.920;6.238;2023-08-20T10:20:05;23.80;99.90
52323;DHT22;38263;52.920;6.238;2023-08-20T10:22:39;23.60;99.90
52323;DHT22;38263;52.920;6.238;2023-08-20T10:25:06;23.60;99.90
52323;DHT22;38263;52.920;6.238;2023-08-20T10:27:34;23.60;99.90
52323;DHT22;38263;52.920;6.238;2023-08-20T10:30:00;23.80;99.90
52323;DHT22;38263;52.920;6.238;2023-08-20T10:35:15;23.80;99.90
52323;DHT22;38263;52.920;6.238;2023-08-20T10:38:04;24.20;99.90
52323;DHT22;38263;52.920;6.238;2023-08-20T10:40:49;23.90;99.90
52323;DHT22;38263;52.920;6.238;2023-08-20T10:48:39;23.70;99.90
52323;DHT22;38263;52.920;6.238;2023-08-20T10:51:17;23.60;99.90
52323;DHT22;38263;52.920;6.238;2023-08-20T10:54:07;23.60;99.90
52323;DHT22;38263;52.920;6.238;2023-08-20T10:56:47;23.50;99.90
52323;DHT22;38263;52.920;6.238;2023-08-20T10:59:18;23.60;99.90
52323;DHT22;38263;52.920;6.238;2023-08-20T11:01:48;23.80;99.90
52323;DHT22;38263;52.920;6.238;2023-08-20T11:04:18;23.80;99.90
52323;DHT22;38263;52.920;6.238;2023-08-20T11:06:45;23.70;99.90
52323;DHT22;38263;52.920;6.238;2023-08-20T11:09:11;23.80;99.90
52323;DHT22;38263;52.920;6.238;2023-08-20T11:11:40;23.50;99.90
52323;DHT22;38263;52.920;6.238;2023-08-20T11:14:08;23.80;99.90
52323;DHT22;38263;52.920;6.238;2023-08-20T11:16:34;23.80;99.90
52323;DHT22;38263;52.920;6.238;2023-08-20T11:19:00;23.80;99.90
52323;DHT22;38263;52.920;6.238;2023-08-20T11:21:28;23.80;99.90
52323;DHT22;38263;52.920;6.238;2023-08-20T11:23:54;23.80;99.90
52323;DHT22;38263;52.920;6.238;2023-08-20T11:26:20;23.60;99.90
52323;DHT22;38263;52.920;6.238;2023-08-20T11:28:46;23.90;99.90
52323;DHT22;38263;52.920;6.238;2023-08-20T11:31:12;23.60;99.90
52323;DHT22;38263;52.920;6.238;2023-08-20T11:33:38;23.50;99.90
52323;DHT22;38263;52.920;6.238;2023-08-20T11:36:05;23.80;99.90
52323;DHT22;38263;52.920;6.238;2023-08-20T11:38:31;24.70;99.90
52323;DHT22;38263;52.920;6.238;2023-08-20T11:40:58;23.70;99.90
52323;DHT22;38263;52.920;6.238;2023-08-20T11:43:28;23.70;99.90
52323;DHT22;38263;52.920;6.238;2023-08-20T11:45:54;23.70;99.90
52323;DHT22;38263;52.920;6.238;2023-08-20T11:48:21;23.80;99.90
52323;DHT22;38263;52.920;6.238;2023-08-20T11:50:47;23.60;99.90
52323;DHT22;38263;52.920;6.238;2023-08-20T11:53:13;23.40;99.90
52323;DHT22;38263;52.920;6.238;2023-08-20T11:55:39;24.00;99.90
52323;DHT22;38263;52.920;6.238;2023-08-20T11:58:05;23.60;99.90
52323;DHT22;38263;52.920;6.238;2023-08-20T12:00:33;23.80;99.90
52323;DHT22;38263;52.920;6.238;2023-08-20T12:02:59;23.80;99.90
52323;DHT22;38263;52.920;6.238;2023-08-20T12:05:27;23.90;99.90
52323;DHT22;38263;52.920;6.238;2023-08-20T12:08:03;23.70;99.90
52323;DHT22;38263;52.920;6.238;2023-08-20T12:10:31;23.90;99.90
52323;DHT22;38263;52.920;6.238;2023-08-20T12:12:57;23.70;99.90
52323;DHT22;38263;52.920;6.238;2023-08-20T12:15:24;23.90;99.90
52323;DHT22;38263;52.920;6.238;2023-08-20T12:18:03;23.80;99.90
52323;DHT22;38263;52.920;6.238;2023-08-20T12:20:31;23.60;99.90
52323;DHT22;38263;52.920;6.238;2023-08-20T12:23:03;23.50;99.90
52323;DHT22;38263;52.920;6.238;2023-08-20T12:25:33;23.60;99.90
52323;DHT22;38263;52.920;6.238;2023-08-20T12:28:03;23.60;99.90
52323;DHT22;38263;52.920;6.238;2023-08-20T12:30:33;23.70;99.90
52323;DHT22;38263;52.920;6.238;2023-08-20T12:33:00;24.20;99.90
52323;DHT22;38263;52.920;6.238;2023-08-20T12:35:25;23.80;99.90
52323;DHT22;38263;52.920;6.238;2023-08-20T12:37:51;23.90;99.90
52323;DHT22;38263;52.920;6.238;2023-08-20T12:40:17;24.00;99.90
52323;DHT22;38263;52.920;6.238;2023-08-20T12:42:43;24.60;99.90
52323;DHT22;38263;52.920;6.238;2023-08-20T12:45:09;24.00;99.90
52323;DHT22;38263;52.920;6.238;2023-08-20T12:47:35;24.00;99.90
52323;DHT22;38263;52.920;6.238;2023-08-20T12:50:01;24.90;99.90
52323;DHT22;38263;52.920;6.238;2023-08-20T12:52:28;24.20;99.90
52323;DHT22;38263;52.920;6.238;2023-08-20T12:54:54;23.90;99.90
52323;DHT22;38263;52.920;6.238;2023-08-20T12:57:19;24.00;99.90
52323;DHT22;38263;52.920;6.238;2023-08-20T12:59:45;24.10;99.90
52323;DHT22;38263;52.920;6.238;2023-08-20T13:05:26;24.60;99.90
52323;DHT22;38263;52.920;6.238;2023-08-20T13:07:52;24.20;99.90
52323;DHT22;38263;52.920;6.238;2023-08-20T13:10:19;24.30;99.90
52323;DHT22;38263;52.920;6.238;2023-08-20T13:12:48;24.10;99.90
52323;DHT22;38263;52.920;6.238;2023-08-20T13:15:19;24.10;99.90
52323;DHT22;38263;52.920;6.238;2023-08-20T13:17:46;24.30;99.90
52323;DHT22;38263;52.920;6.238;2023-08-20T13:20:12;24.40;99.90
52323;DHT22;38263;52.920;6.238;2023-08-20T13:22:38;24.70;99.90
52323;DHT22;38263;52.920;6.238;2023-08-20T13:25:04;24.40;99.90
52323;DHT22;38263;52.920;6.238;2023-08-20T13:27:30;24.70;99.90
52323;DHT22;38263;52.920;6.238;2023-08-20T13:29:56;24.60;99.90
52323;DHT22;38263;52.920;6.238;2023-08-20T13:32:22;24.40;99.90
52323;DHT22;38263;52.920;6.238;2023-08-20T13:34:49;24.50;99.90
52323;DHT22;38263;52.920;6.238;2023-08-20T13:37:46;24.40;99.90
52323;DHT22;38263;52.920;6.238;2023-08-20T13:40:12;24.90;99.90
52323;DHT22;38263;52.920;6.238;2023-08-20T13:42:37;24.20;99.90
52323;DHT22;38263;52.920;6.238;2023-08-20T13:45:03;24.40;99.90
52323;DHT22;38263;52.920;6.238;2023-08-20T13:47:29;24.20;99.90
52323;DHT22;38263;52.920;6.238;2023-08-20T13:49:55;24.00;99.90
52323;DHT22;38263;52.920;6.238;2023-08-20T13:52:20;24.10;99.90
52323;DHT22;38263;52.920;6.238;2023-08-20T13:54:46;24.20;99.90
52323;DHT22;38263;52.920;6.238;2023-08-20T13:57:11;24.40;99.90
52323;DHT22;38263;52.920;6.238;2023-08-20T13:59:37;24.20;99.90
52323;DHT22;38263;52.920;6.238;2023-08-20T14:02:02;24.50;99.90
52323;DHT22;38263;52.920;6.238;2023-08-20T14:04:28;24.40;99.90
52323;DHT22;38263;52.920;6.238;2023-08-20T14:06:54;26.20;99.90
52323;DHT22;38263;52.920;6.238;2023-08-20T14:09:19;24.50;99.90
52323;DHT22;38263;52.920;6.238;2023-08-20T14:11:48;24.50;99.90
52323;DHT22;38263;52.920;6.238;2023-08-20T14:14:14;24.70;99.90
52323;DHT22;38263;52.920;6.238;2023-08-20T14:16:39;24.40;99.90
52323;DHT22;38263;52.920;6.238;2023-08-20T14:19:06;25.80;99.90
52323;DHT22;38263;52.920;6.238;2023-08-20T14:21:31;24.50;99.90
52323;DHT22;38263;52.920;6.238;2023-08-20T14:23:57;24.60;99.90
52323;DHT22;38263;52.920;6.238;2023-08-20T14:26:23;24.90;99.90
52323;DHT22;38263;52.920;6.238;2023-08-20T14:28:49;24.90;99.90
52323;DHT22;38263;52.920;6.238;2023-08-20T14:31:14;24.80;99.90
52323;DHT22;38263;52.920;6.238;2023-08-20T14:33:40;24.60;99.90
52323;DHT22;38263;52.920;6.238;2023-08-20T14:36:05;25.80;99.90
52323;DHT22;38263;52.920;6.238;2023-08-20T14:38:32;24.40;99.90
52323;DHT22;38263;52.920;6.238;2023-08-20T14:41:01;24.40;99.90
52323;DHT22;38263;52.920;6.238;2023-08-20T14:43:27;24.40;99.90
52323;DHT22;38263;52.920;6.238;2023-08-20T14:45:53;24.50;99.90
52323;DHT22;38263;52.920;6.238;2023-08-20T14:48:20;24.40;99.90
52323;DHT22;38263;52.920;6.238;2023-08-20T14:50:45;24.70;99.90
52323;DHT22;38263;52.920;6.238;2023-08-20T14:53:11;24.80;99.90
52323;DHT22;38263;52.920;6.238;2023-08-20T14:55:37;24.70;99.90
52323;DHT22;38263;52.920;6.238;2023-08-20T14:58:02;26.50;99.90
52323;DHT22;38263;52.920;6.238;2023-08-20T15:00:32;25.00;99.90
52323;DHT22;38263;52.920;6.238;2023-08-20T15:02:57;24.80;99.90
52323;DHT22;38263;52.920;6.238;2023-08-20T15:05:23;24.80;99.90
52323;DHT22;38263;52.920;6.238;2023-08-20T15:07:48;24.80;99.90
52323;DHT22;38263;52.920;6.238;2023-08-20T15:10:14;24.80;99.90
52323;DHT22;38263;52.920;6.238;2023-08-20T15:12:39;24.70;99.90
52323;DHT22;38263;52.920;6.238;2023-08-20T15:15:06;24.90;99.90
52323;DHT22;38263;52.920;6.238;2023-08-20T15:17:32;24.90;99.90
52323;DHT22;38263;52.920;6.238;2023-08-20T15:19:58;25.10;99.90
52323;DHT22;38263;52.920;6.238;2023-08-20T15:22:24;24.80;99.90
52323;DHT22;38263;52.920;6.238;2023-08-20T15:24:50;26.10;99.90
52323;DHT22;38263;52.920;6.238;2023-08-20T15:27:17;24.80;99.90
52323;DHT22;38263;52.920;6.238;2023-08-20T15:29:43;24.80;99.90
52323;DHT22;38263;52.920;6.238;2023-08-20T15:32:08;24.50;99.90
52323;DHT22;38263;52.920;6.238;2023-08-20T15:34:34;24.60;99.90
52323;DHT22;38263;52.920;6.238;2023-08-20T15:36:59;24.60;99.90
52323;DHT22;38263;52.920;6.238;2023-08-20T15:39:25;24.40;99.90
52323;DHT22;38263;52.920;6.238;2023-08-20T15:41:51;24.60;99.90
52323;DHT22;38263;52.920;6.238;2023-08-20T15:44:39;24.40;99.90
52323;DHT22;38263;52.920;6.238;2023-08-20T15:47:05;25.00;99.90
52323;DHT22;38263;52.920;6.238;2023-08-20T15:49:31;24.70;99.90
52323;DHT22;38263;52.920;6.238;2023-08-20T15:51:56;24.80;99.90
52323;DHT22;38263;52.920;6.238;2023-08-20T15:54:22;24.50;99.90
52323;DHT22;38263;52.920;6.238;2023-08-20T15:56:47;24.70;99.90
52323;DHT22;38263;52.920;6.238;2023-08-20T15:59:13;24.80;99.90
52323;DHT22;38263;52.920;6.238;2023-08-20T16:01:39;24.80;99.90
52323;DHT22;38263;52.920;6.238;2023-08-20T16:04:05;24.80;99.90
52323;DHT22;38263;52.920;6.238;2023-08-20T16:06:30;24.90;99.90
52323;DHT22;38263;52.920;6.238;2023-08-20T16:08:56;25.00;99.90
52323;DHT22;38263;52.920;6.238;2023-08-20T16:11:21;24.90;99.90
52323;DHT22;38263;52.920;6.238;2023-08-20T16:13:47;24.90;99.90
52323;DHT22;38263;52.920;6.238;2023-08-20T16:16:13;25.00;99.90
52323;DHT22;38263;52.920;6.238;2023-08-20T16:18:43;24.70;99.90
52323;DHT22;38263;52.920;6.238;2023-08-20T16:21:09;25.00;99.90
52323;DHT22;38263;52.920;6.238;2023-08-20T16:23:35;25.00;99.90
52323;DHT22;38263;52.920;6.238;2023-08-20T16:26:01;24.90;99.90
52323;DHT22;38263;52.920;6.238;2023-08-20T16:28:26;25.10;99.90
52323;DHT22;38263;52.920;6.238;2023-08-20T16:30:52;25.10;99.90
52323;DHT22;38263;52.920;6.238;2023-08-20T16:33:19;25.00;99.90
52323;DHT22;38263;52.920;6.238;2023-08-20T16:35:46;25.00;99.90
52323;DHT22;38263;52.920;6.238;2023-08-20T16:38:11;25.00;99.90
52323;DHT22;38263;52.920;6.238;2023-08-20T16:40:37;24.90;99.90
52323;DHT22;38263;52.920;6.238;2023-08-20T16:43:02;24.70;99.90
52323;DHT22;38263;52.920;6.238;2023-08-20T16:45:29;25.20;99.90
52323;DHT22;38263;52.920;6.238;2023-08-20T16:47:55;25.00;99.90
52323;DHT22;38263;52.920;6.238;2023-08-20T16:50:20;25.30;99.90
52323;DHT22;38263;52.920;6.238;2023-08-20T16:52:46;24.90;99.90
52323;DHT22;38263;52.920;6.238;2023-08-20T16:55:11;24.90;99.90
52323;DHT22;38263;52.920;6.238;2023-08-20T16:57:37;24.70;99.90
52323;DHT22;38263;52.920;6.238;2023-08-20T17:00:03;24.90;99.90
52323;DHT22;38263;52.920;6.238;2023-08-20T17:02:32;24.90;99.90
52323;DHT22;38263;52.920;6.238;2023-08-20T17:04:57;27.00;99.90
52323;DHT22;38263;52.920;6.238;2023-08-20T17:07:23;24.50;99.90
52323;DHT22;38263;52.920;6.238;2023-08-20T17:09:48;24.50;99.90
52323;DHT22;38263;52.920;6.238;2023-08-20T17:12:14;24.60;99.90
52323;DHT22;38263;52.920;6.238;2023-08-20T17:14:39;24.40;99.90
52323;DHT22;38263;52.920;6.238;2023-08-20T17:17:05;24.00;99.90
52323;DHT22;38263;52.920;6.238;2023-08-20T17:19:30;25.50;99.90
52323;DHT22;38263;52.920;6.238;2023-08-20T17:21:56;23.90;99.90
52323;DHT22;38263;52.920;6.238;2023-08-20T17:24:22;23.70;99.90
52323;DHT22;38263;52.920;6.238;2023-08-20T17:26:47;23.80;99.90
52323;DHT22;38263;52.920;6.238;2023-08-20T17:29:13;23.60;99.90
52323;DHT22;38263;52.920;6.238;2023-08-20T17:31:38;25.10;99.90
52323;DHT22;38263;52.920;6.238;2023-08-20T17:34:04;23.50;99.90
52323;DHT22;38263;52.920;6.238;2023-08-20T17:36:33;23.40;99.90
52323;DHT22;38263;52.920;6.238;2023-08-20T17:38:59;23.20;99.90
52323;DHT22;38263;52.920;6.238;2023-08-20T17:41:25;23.30;99.90
52323;DHT22;38263;52.920;6.238;2023-08-20T17:43:50;23.00;99.90
52323;DHT22;38263;52.920;6.238;2023-08-20T17:46:16;23.10;99.90
52323;DHT22;38263;52.920;6.238;2023-08-20T17:48:41;22.90;99.90
52323;DHT22;38263;52.920;6.238;2023-08-20T17:51:07;23.10;99.90
52323;DHT22;38263;52.920;6.238;2023-08-20T17:53:33;22.90;99.90
52323;DHT22;38263;52.920;6.238;2023-08-20T17:55:58;22.70;99.90
52323;DHT22;38263;52.920;6.238;2023-08-20T17:58:24;24.10;99.90
52323;DHT22;38263;52.920;6.238;2023-08-20T18:00:49;22.70;99.90
52323;DHT22;38263;52.920;6.238;2023-08-20T18:03:15;22.70;99.90
52323;DHT22;38263;52.920;6.238;2023-08-20T18:05:42;22.80;99.90
52323;DHT22;38263;52.920;6.238;2023-08-20T18:08:08;22.40;99.90
52323;DHT22;38263;52.920;6.238;2023-08-20T18:10:34;22.50;99.90
52323;DHT22;38263;52.920;6.238;2023-08-20T18:12:59;22.40;99.90
52323;DHT22;38263;52.920;6.238;2023-08-20T18:15:27;22.30;99.90
52323;DHT22;38263;52.920;6.238;2023-08-20T18:17:53;22.20;99.90
52323;DHT22;38263;52.920;6.238;2023-08-20T18:20:19;22.20;99.90
52323;DHT22;38263;52.920;6.238;2023-08-20T18:22:46;22.20;99.90
52323;DHT22;38263;52.920;6.238;2023-08-20T18:25:12;21.90;99.90
52323;DHT22;38263;52.920;6.238;2023-08-20T18:27:37;21.70;99.90
52323;DHT22;38263;52.920;6.238;2023-08-20T18:30:03;21.80;99.90
52323;DHT22;38263;52.920;6.238;2023-08-20T18:32:30;21.90;99.90
52323;DHT22;38263;52.920;6.238;2023-08-20T18:34:56;21.60;99.90
52323;DHT22;38263;52.920;6.238;2023-08-20T18:37:22;21.40;99.90
52323;DHT22;38263;52.920;6.238;2023-08-20T18:39:47;21.60;99.90
52323;DHT22;38263;52.920;6.238;2023-08-20T18:42:13;21.60;99.90
52323;DHT22;38263;52.920;6.238;2023-08-20T18:44:38;21.50;99.90
52323;DHT22;38263;52.920;6.238;2023-08-20T18:47:06;21.50;99.90
52323;DHT22;38263;52.920;6.238;2023-08-20T18:49:31;21.10;99.90
52323;DHT22;38263;52.920;6.238;2023-08-20T18:51:57;21.20;99.90
52323;DHT22;38263;52.920;6.238;2023-08-20T18:54:22;21.00;99.90
52323;DHT22;38263;52.920;6.238;2023-08-20T18:56:48;21.10;99.90
52323;DHT22;38263;52.920;6.238;2023-08-20T18:59:13;20.80;99.90
52323;DHT22;38263;52.920;6.238;2023-08-20T19:01:39;21.20;99.90
52323;DHT22;38263;52.920;6.238;2023-08-20T19:04:04;18.80;99.90
52323;DHT22;38263;52.920;6.238;2023-08-20T19:06:30;21.00;99.90
52323;DHT22;38263;52.920;6.238;2023-08-20T19:08:56;20.70;99.90
52323;DHT22;38263;52.920;6.238;2023-08-20T19:11:21;20.90;99.90
52323;DHT22;38263;52.920;6.238;2023-08-20T19:13:47;20.60;99.90
52323;DHT22;38263;52.920;6.238;2023-08-20T19:16:12;20.70;99.90